sensor_id;sensor_type;location;lat;lon;timestamp;temperature;humidity
51825;DHT22;37879;52.986;6.282;2023-04-06T00:01:27;3.00;99.90
51825;DHT22;37879;52.986;6.282;2023-04-06T00:03:52;3.00;99.90
51825;DHT22;37879;52.986;6.282;2023-04-06T00:06:18;3.30;99.90
51825;DHT22;37879;52.986;6.282;2023-04-06T00:08:44;2.90;99.90
51825;DHT22;37879;52.986;6.282;2023-04-06T00:11:10;2.90;99.90
51825;DHT22;37879;52.986;6.282;2023-04-06T00:13:35;2.90;99.90
51825;DHT22;37879;52.986;6.282;2023-04-06T00:16:01;2.90;99.90
51825;DHT22;37879;52.986;6.282;2023-04-06T00:18:26;2.90;99.90
51825;DHT22;37879;52.986;6.282;2023-04-06T00:20:52;2.90;99.90
51825;DHT22;37879;52.986;6.282;2023-04-06T00:23:18;2.90;99.90
51825;DHT22;37879;52.986;6.282;2023-04-06T00:25:43;2.80;99.90
51825;DHT22;37879;52.986;6.282;2023-04-06T00:28:09;2.80;99.90
51825;DHT22;37879;52.986;6.282;2023-04-06T00:30:35;2.80;99.90
51825;DHT22;37879;52.986;6.282;2023-04-06T00:33:00;2.80;99.90
51825;DHT22;37879;52.986;6.282;2023-04-06T00:35:26;2.80;99.90
51825;DHT22;37879;52.986;6.282;2023-04-06T00:37:52;2.80;99.90
51825;DHT22;37879;52.986;6.282;2023-04-06T00:40:17;2.70;99.90
51825;DHT22;37879;52.986;6.282;2023-04-06T00:42:43;2.70;99.90
51825;DHT22;37879;52.986;6.282;2023-04-06T00:45:09;3.40;99.90
51825;DHT22;37879;52.986;6.282;2023-04-06T00:47:35;2.60;99.90
51825;DHT22;37879;52.986;6.282;2023-04-06T00:50:01;2.60;99.90
51825;DHT22;37879;52.986;6.282;2023-04-06T00:52:27;2.60;99.90
51825;DHT22;37879;52.986;6.282;2023-04-06T00:54:56;2.60;99.90
51825;DHT22;37879;52.986;6.282;2023-04-06T00:57:21;2.60;99.90
51825;DHT22;37879;52.986;6.282;2023-04-06T00:59:47;2.50;99.90
51825;DHT22;37879;52.986;6.282;2023-04-06T01:02:13;2.50;99.90
51825;DHT22;37879;52.986;6.282;2023-04-06T01:04:38;2.40;99.90
51825;DHT22;37879;52.986;6.282;2023-04-06T01:07:04;2.40;99.90
51825;DHT22;37879;52.986;6.282;2023-04-06T01:09:30;2.30;99.90
51825;DHT22;37879;52.986;6.282;2023-04-06T01:11:59;2.30;99.90
51825;DHT22;37879;52.986;6.282;2023-04-06T01:14:25;2.30;99.90
51825;DHT22;37879;52.986;6.282;2023-04-06T01:16:51;2.20;99.90
51825;DHT22;37879;52.986;6.282;2023-04-06T01:19:17;2.20;99.90
51825;DHT22;37879;52.986;6.282;2023-04-06T01:21:43;2.20;99.90
51825;DHT22;37879;52.986;6.282;2023-04-06T01:24:09;2.20;99.90
51825;DHT22;37879;52.986;6.282;2023-04-06T01:26:36;2.20;99.90
51825;DHT22;37879;52.986;6.282;2023-04-06T01:29:02;2.20;99.90
51825;DHT22;37879;52.986;6.282;2023-04-06T01:31:28;2.20;99.90
51825;DHT22;37879;52.986;6.282;2023-04-06T01:33:55;2.10;99.90
51825;DHT22;37879;52.986;6.282;2023-04-06T01:36:21;2.10;99.90
51825;DHT22;37879;52.986;6.282;2023-04-06T01:38:46;2.10;99.90
51825;DHT22;37879;52.986;6.282;2023-04-06T01:41:12;2.10;99.90
51825;DHT22;37879;52.986;6.282;2023-04-06T01:43:38;2.60;99.90
51825;DHT22;37879;52.986;6.282;2023-04-06T01:46:04;2.10;99.90
51825;DHT22;37879;52.986;6.282;2023-04-06T01:48:29;2.20;99.90
51825;DHT22;37879;52.986;6.282;2023-04-06T01:50:55;1.90;99.90
51825;DHT22;37879;52.986;6.282;2023-04-06T01:53:21;1.90;99.90
51825;DHT22;37879;52.986;6.282;2023-04-06T01:55:47;1.80;99.90
51825;DHT22;37879;52.986;6.282;2023-04-06T01:58:13;1.80;99.90
51825;DHT22;37879;52.986;6.282;2023-04-06T02:00:39;1.80;99.90
51825;DHT22;37879;52.986;6.282;2023-04-06T02:03:05;1.80;99.90
51825;DHT22;37879;52.986;6.282;2023-04-06T02:05:32;1.80;99.90
51825;DHT22;37879;52.986;6.282;2023-04-06T02:08:06;1.70;99.90
51825;DHT22;37879;52.986;6.282;2023-04-06T02:10:32;2.60;99.90
51825;DHT22;37879;52.986;6.282;2023-04-06T02:12:58;1.70;99.90
51825;DHT22;37879;52.986;6.282;2023-04-06T02:15:24;1.70;99.90
51825;DHT22;37879;52.986;6.282;2023-04-06T02:17:51;1.70;99.90
51825;DHT22;37879;52.986;6.282;2023-04-06T02:20:16;1.60;99.90
51825;DHT22;37879;52.986;6.282;2023-04-06T02:22:42;1.60;99.90
51825;DHT22;37879;52.986;6.282;2023-04-06T02:25:08;2.10;99.90
51825;DHT22;37879;52.986;6.282;2023-04-06T02:27:34;1.60;99.90
51825;DHT22;37879;52.986;6.282;2023-04-06T02:29:59;1.90;99.90
51825;DHT22;37879;52.986;6.282;2023-04-06T02:32:25;1.50;99.90
51825;DHT22;37879;52.986;6.282;2023-04-06T02:34:51;1.50;99.90
51825;DHT22;37879;52.986;6.282;2023-04-06T02:37:17;2.00;99.90
51825;DHT22;37879;52.986;6.282;2023-04-06T02:39:42;1.60;99.90
51825;DHT22;37879;52.986;6.282;2023-04-06T02:42:08;2.00;99.90
51825;DHT22;37879;52.986;6.282;2023-04-06T02:44:34;1.50;99.90
51825;DHT22;37879;52.986;6.282;2023-04-06T02:47:00;1.50;99.90
51825;DHT22;37879;52.986;6.282;2023-04-06T02:49:25;1.50;99.90
51825;DHT22;37879;52.986;6.282;2023-04-06T02:51:51;2.70;99.90
51825;DHT22;37879;52.986;6.282;2023-04-06T02:54:17;1.40;99.90
51825;DHT22;37879;52.986;6.282;2023-04-06T02:56:43;1.40;99.90
51825;DHT22;37879;52.986;6.282;2023-04-06T02:59:08;1.40;99.90
51825;DHT22;37879;52.986;6.282;2023-04-06T03:01:34;1.40;99.90
51825;DHT22;37879;52.986;6.282;2023-04-06T03:04:00;1.40;99.90
51825;DHT22;37879;52.986;6.282;2023-04-06T03:06:26;1.40;99.90
51825;DHT22;37879;52.986;6.282;2023-04-06T03:08:51;1.40;99.90
51825;DHT22;37879;52.986;6.282;2023-04-06T03:11:17;1.40;99.90
51825;DHT22;37879;52.986;6.282;2023-04-06T03:13:43;1.40;99.90
51825;DHT22;37879;52.986;6.282;2023-04-06T03:16:08;1.40;99.90
51825;DHT22;37879;52.986;6.282;2023-04-06T03:18:34;1.30;99.90
51825;DHT22;37879;52.986;6.282;2023-04-06T03:20:59;1.30;99.90
51825;DHT22;37879;52.986;6.282;2023-04-06T03:23:28;1.30;99.90
51825;DHT22;37879;52.986;6.282;2023-04-06T03:25:53;1.30;99.90
51825;DHT22;37879;52.986;6.282;2023-04-06T03:28:19;2.10;99.90
51825;DHT22;37879;52.986;6.282;2023-04-06T03:30:45;1.50;99.90
51825;DHT22;37879;52.986;6.282;2023-04-06T03:33:11;1.20;99.90
51825;DHT22;37879;52.986;6.282;2023-04-06T03:35:36;2.10;99.90
51825;DHT22;37879;52.986;6.282;2023-04-06T03:38:03;1.20;99.90
51825;DHT22;37879;52.986;6.282;2023-04-06T03:40:30;0.20;99.90
51825;DHT22;37879;52.986;6.282;2023-04-06T03:42:55;1.20;99.90
51825;DHT22;37879;52.986;6.282;2023-04-06T03:45:21;2.70;99.90
51825;DHT22;37879;52.986;6.282;2023-04-06T03:47:47;1.10;99.90
51825;DHT22;37879;52.986;6.282;2023-04-06T03:50:12;1.10;99.90
51825;DHT22;37879;52.986;6.282;2023-04-06T03:52:38;1.00;99.90
51825;DHT22;37879;52.986;6.282;2023-04-06T03:55:05;1.00;99.90
51825;DHT22;37879;52.986;6.282;2023-04-06T03:57:31;0.90;99.90
51825;DHT22;37879;52.986;6.282;2023-04-06T03:59:57;1.00;99.90
51825;DHT22;37879;52.986;6.282;2023-04-06T04:02:22;0.90;99.90
51825;DHT22;37879;52.986;6.282;2023-04-06T04:04:48;0.90;99.90
51825;DHT22;37879;52.986;6.282;2023-04-06T04:07:14;0.90;99.90
51825;DHT22;37879;52.986;6.282;2023-04-06T04:09:39;0.90;99.90
51825;DHT22;37879;52.986;6.282;2023-04-06T04:12:05;1.80;99.90
51825;DHT22;37879;52.986;6.282;2023-04-06T04:14:31;0.90;99.90
51825;DHT22;37879;52.986;6.282;2023-04-06T04:16:57;0.90;99.90
51825;DHT22;37879;52.986;6.282;2023-04-06T04:19:22;0.90;99.90
51825;DHT22;37879;52.986;6.282;2023-04-06T04:21:48;0.90;99.90
51825;DHT22;37879;52.986;6.282;2023-04-06T04:24:13;0.90;99.90
51825;DHT22;37879;52.986;6.282;2023-04-06T04:26:39;0.80;99.90
51825;DHT22;37879;52.986;6.282;2023-04-06T04:29:05;0.80;99.90
51825;DHT22;37879;52.986;6.282;2023-04-06T04:31:31;1.00;99.90
51825;DHT22;37879;52.986;6.282;2023-04-06T04:33:57;-1.00;99.90
51825;DHT22;37879;52.986;6.282;2023-04-06T04:36:23;1.40;99.90
51825;DHT22;37879;52.986;6.282;2023-04-06T04:38:51;0.80;99.90
51825;DHT22;37879;52.986;6.282;2023-04-06T04:41:17;0.70;99.90
51825;DHT22;37879;52.986;6.282;2023-04-06T04:43:42;0.70;99.90
51825;DHT22;37879;52.986;6.282;2023-04-06T04:46:08;0.80;99.90
51825;DHT22;37879;52.986;6.282;2023-04-06T04:48:34;0.80;99.90
51825;DHT22;37879;52.986;6.282;2023-04-06T04:51:00;0.70;99.90
51825;DHT22;37879;52.986;6.282;2023-04-06T04:53:26;0.80;99.90
51825;DHT22;37879;52.986;6.282;2023-04-06T04:55:51;0.70;99.90
51825;DHT22;37879;52.986;6.282;2023-04-06T04:58:17;0.80;99.90
51825;DHT22;37879;52.986;6.282;2023-04-06T05:00:45;0.80;99.90
51825;DHT22;37879;52.986;6.282;2023-04-06T05:03:19;0.80;99.90
51825;DHT22;37879;52.986;6.282;2023-04-06T05:05:46;0.80;99.90
51825;DHT22;37879;52.986;6.282;2023-04-06T05:08:12;0.80;99.90
51825;DHT22;37879;52.986;6.282;2023-04-06T05:10:37;0.80;99.90
51825;DHT22;37879;52.986;6.282;2023-04-06T05:13:03;0.90;99.90
51825;DHT22;37879;52.986;6.282;2023-04-06T05:15:29;0.90;99.90
51825;DHT22;37879;52.986;6.282;2023-04-06T05:17:54;0.90;99.90
51825;DHT22;37879;52.986;6.282;2023-04-06T05:20:20;0.90;99.90
51825;DHT22;37879;52.986;6.282;2023-04-06T05:22:46;1.00;99.90
51825;DHT22;37879;52.986;6.282;2023-04-06T05:25:12;1.00;99.90
51825;DHT22;37879;52.986;6.282;2023-04-06T05:27:38;1.00;99.90
51825;DHT22;37879;52.986;6.282;2023-04-06T05:30:05;1.00;99.90
51825;DHT22;37879;52.986;6.282;2023-04-06T05:32:31;1.10;99.90
51825;DHT22;37879;52.986;6.282;2023-04-06T05:34:57;1.10;99.90
51825;DHT22;37879;52.986;6.282;2023-04-06T05:37:23;1.10;99.90
51825;DHT22;37879;52.986;6.282;2023-04-06T05:39:48;1.10;99.90
51825;DHT22;37879;52.986;6.282;2023-04-06T05:42:14;1.60;99.90
51825;DHT22;37879;52.986;6.282;2023-04-06T05:44:40;1.20;99.90
51825;DHT22;37879;52.986;6.282;2023-04-06T05:47:06;1.30;99.90
51825;DHT22;37879;52.986;6.282;2023-04-06T05:49:31;1.30;99.90
51825;DHT22;37879;52.986;6.282;2023-04-06T05:51:57;1.40;99.90
51825;DHT22;37879;52.986;6.282;2023-04-06T05:54:23;1.30;99.90
51825;DHT22;37879;52.986;6.282;2023-04-06T05:56:48;1.40;99.90
51825;DHT22;37879;52.986;6.282;2023-04-06T05:59:14;1.50;99.90
51825;DHT22;37879;52.986;6.282;2023-04-06T06:01:41;1.80;99.90
51825;DHT22;37879;52.986;6.282;2023-04-06T06:04:06;1.60;99.90
51825;DHT22;37879;52.986;6.282;2023-04-06T06:06:32;1.70;99.90
51825;DHT22;37879;52.986;6.282;2023-04-06T06:08:58;1.80;99.90
51825;DHT22;37879;52.986;6.282;2023-04-06T06:11:27;1.90;99.90
51825;DHT22;37879;52.986;6.282;2023-04-06T06:13:52;3.60;99.90
51825;DHT22;37879;52.986;6.282;2023-04-06T06:16:19;1.90;99.90
51825;DHT22;37879;52.986;6.282;2023-04-06T06:18:45;3.70;99.90
51825;DHT22;37879;52.986;6.282;2023-04-06T06:21:10;2.10;99.90
51825;DHT22;37879;52.986;6.282;2023-04-06T06:23:42;2.10;99.90
51825;DHT22;37879;52.986;6.282;2023-04-06T06:26:07;2.20;99.90
51825;DHT22;37879;52.986;6.282;2023-04-06T06:28:33;2.30;99.90
51825;DHT22;37879;52.986;6.282;2023-04-06T06:30:59;2.40;99.90
51825;DHT22;37879;52.986;6.282;2023-04-06T06:33:24;2.40;99.90
51825;DHT22;37879;52.986;6.282;2023-04-06T06:35:51;2.50;99.90
51825;DHT22;37879;52.986;6.282;2023-04-06T06:38:17;2.60;99.90
51825;DHT22;37879;52.986;6.282;2023-04-06T06:40:43;2.80;99.90
51825;DHT22;37879;52.986;6.282;2023-04-06T06:43:08;2.90;99.90
51825;DHT22;37879;52.986;6.282;2023-04-06T06:45:34;3.10;99.90
51825;DHT22;37879;52.986;6.282;2023-04-06T06:48:00;3.10;99.90
51825;DHT22;37879;52.986;6.282;2023-04-06T06:50:26;3.20;99.90
51825;DHT22;37879;52.986;6.282;2023-04-06T06:52:52;3.50;99.90
51825;DHT22;37879;52.986;6.282;2023-04-06T06:55:17;3.60;99.90
51825;DHT22;37879;52.986;6.282;2023-04-06T06:57:44;3.90;99.90
51825;DHT22;37879;52.986;6.282;2023-04-06T07:00:12;3.70;99.90
51825;DHT22;37879;52.986;6.282;2023-04-06T07:02:38;3.80;99.90
51825;DHT22;37879;52.986;6.282;2023-04-06T07:05:04;3.90;99.90
51825;DHT22;37879;52.986;6.282;2023-04-06T07:07:32;4.00;99.90
51825;DHT22;37879;52.986;6.282;2023-04-06T07:09:59;4.10;99.90
51825;DHT22;37879;52.986;6.282;2023-04-06T07:12:25;4.20;99.90
51825;DHT22;37879;52.986;6.282;2023-04-06T07:14:51;4.10;99.90
51825;DHT22;37879;52.986;6.282;2023-04-06T07:17:17;4.60;99.90
51825;DHT22;37879;52.986;6.282;2023-04-06T07:19:42;4.50;99.90
51825;DHT22;37879;52.986;6.282;2023-04-06T07:22:08;4.60;99.90
51825;DHT22;37879;52.986;6.282;2023-04-06T07:24:34;4.70;99.90
51825;DHT22;37879;52.986;6.282;2023-04-06T07:27:00;4.90;99.90
51825;DHT22;37879;52.986;6.282;2023-04-06T07:29:28;5.00;99.90
51825;DHT22;37879;52.986;6.282;2023-04-06T07:31:54;5.00;99.90
51825;DHT22;37879;52.986;6.282;2023-04-06T07:34:21;5.10;99.90
51825;DHT22;37879;52.986;6.282;2023-04-06T07:36:47;5.20;99.90
51825;DHT22;37879;52.986;6.282;2023-04-06T07:39:13;5.30;99.90
51825;DHT22;37879;52.986;6.282;2023-04-06T07:41:39;5.40;99.90
51825;DHT22;37879;52.986;6.282;2023-04-06T07:44:05;5.60;99.90
51825;DHT22;37879;52.986;6.282;2023-04-06T07:46:30;5.70;99.90
51825;DHT22;37879;52.986;6.282;2023-04-06T07:48:57;5.80;99.90
51825;DHT22;37879;52.986;6.282;2023-04-06T07:51:23;5.90;99.90
51825;DHT22;37879;52.986;6.282;2023-04-06T07:53:50;6.10;99.90
51825;DHT22;37879;52.986;6.282;2023-04-06T07:56:16;6.20;99.90
51825;DHT22;37879;52.986;6.282;2023-04-06T07:58:42;6.50;99.90
51825;DHT22;37879;52.986;6.282;2023-04-06T08:01:07;6.70;99.90
51825;DHT22;37879;52.986;6.282;2023-04-06T08:03:34;6.90;99.90
51825;DHT22;37879;52.986;6.282;2023-04-06T08:06:00;7.00;99.90
51825;DHT22;37879;52.986;6.282;2023-04-06T08:08:26;8.10;99.90
51825;DHT22;37879;52.986;6.282;2023-04-06T08:10:51;7.20;99.90
51825;DHT22;37879;52.986;6.282;2023-04-06T08:13:17;7.40;99.90
51825;DHT22;37879;52.986;6.282;2023-04-06T08:15:43;7.50;99.90
51825;DHT22;37879;52.986;6.282;2023-04-06T08:18:09;7.70;99.90
51825;DHT22;37879;52.986;6.282;2023-04-06T08:20:35;7.90;99.90
51825;DHT22;37879;52.986;6.282;2023-04-06T08:23:00;8.10;99.90
51825;DHT22;37879;52.986;6.282;2023-04-06T08:25:26;8.30;99.90
51825;DHT22;37879;52.986;6.282;2023-04-06T08:27:52;9.00;99.90
51825;DHT22;37879;52.986;6.282;2023-04-06T08:30:17;8.60;99.90
51825;DHT22;37879;52.986;6.282;2023-04-06T08:32:45;8.70;99.90
51825;DHT22;37879;52.986;6.282;2023-04-06T08:35:11;8.80;99.90
51825;DHT22;37879;52.986;6.282;2023-04-06T08:37:36;8.90;99.90
51825;DHT22;37879;52.986;6.282;2023-04-06T08:40:02;9.00;99.90
51825;DHT22;37879;52.986;6.282;2023-04-06T08:42:32;9.10;99.90
51825;DHT22;37879;52.986;6.282;2023-04-06T08:44:58;9.10;99.90
51825;DHT22;37879;52.986;6.282;2023-04-06T08:47:24;9.10;99.90
51825;DHT22;37879;52.986;6.282;2023-04-06T08:49:51;9.70;99.90
51825;DHT22;37879;52.986;6.282;2023-04-06T08:52:18;9.10;99.90
51825;DHT22;37879;52.986;6.282;2023-04-06T08:54:44;9.20;99.90
51825;DHT22;37879;52.986;6.282;2023-04-06T08:57:10;9.70;99.90
51825;DHT22;37879;52.986;6.282;2023-04-06T08:59:37;9.50;99.90
51825;DHT22;37879;52.986;6.282;2023-04-06T09:02:04;9.30;99.90
51825;DHT22;37879;52.986;6.282;2023-04-06T09:04:36;9.40;99.90
51825;DHT22;37879;52.986;6.282;2023-04-06T09:07:02;9.50;99.90
51825;DHT22;37879;52.986;6.282;2023-04-06T09:09:28;10.00;99.90
51825;DHT22;37879;52.986;6.282;2023-04-06T09:11:53;9.70;99.90
51825;DHT22;37879;52.986;6.282;2023-04-06T09:14:36;10.60;99.90
51825;DHT22;37879;52.986;6.282;2023-04-06T09:17:03;10.20;99.90
51825;DHT22;37879;52.986;6.282;2023-04-06T09:19:29;9.90;99.90
51825;DHT22;37879;52.986;6.282;2023-04-06T09:22:04;9.90;99.90
51825;DHT22;37879;52.986;6.282;2023-04-06T09:24:43;10.00;99.90
51825;DHT22;37879;52.986;6.282;2023-04-06T09:27:09;10.20;99.90
51825;DHT22;37879;52.986;6.282;2023-04-06T09:29:35;10.30;99.90
51825;DHT22;37879;52.986;6.282;2023-04-06T09:32:06;10.40;99.90
51825;DHT22;37879;52.986;6.282;2023-04-06T09:34:33;10.40;99.90
51825;DHT22;37879;52.986;6.282;2023-04-06T09:36:59;10.50;99.90
51825;DHT22;37879;52.986;6.282;2023-04-06T09:39:25;10.60;99.90
51825;DHT22;37879;52.986;6.282;2023-04-06T09:41:52;10.60;99.90
51825;DHT22;37879;52.986;6.282;2023-04-06T09:44:18;10.60;99.90
51825;DHT22;37879;52.986;6.282;2023-04-06T09:46:45;10.50;99.90
51825;DHT22;37879;52.986;6.282;2023-04-06T09:49:12;10.60;99.90
51825;DHT22;37879;52.986;6.282;2023-04-06T09:54:06;10.80;99.90
51825;DHT22;37879;52.986;6.282;2023-04-06T09:57:08;11.30;99.90
51825;DHT22;37879;52.986;6.282;2023-04-06T10:00:03;11.10;99.90
51825;DHT22;37879;52.986;6.282;2023-04-06T10:02:55;11.30;99.90
51825;DHT22;37879;52.986;6.282;2023-04-06T10:05:43;11.30;99.90
51825;DHT22;37879;52.986;6.282;2023-04-06T10:08:10;12.10;99.90
51825;DHT22;37879;52.986;6.282;2023-04-06T10:10:37;11.40;99.90
51825;DHT22;37879;52.986;6.282;2023-04-06T10:13:07;11.40;99.90
51825;DHT22;37879;52.986;6.282;2023-04-06T10:15:33;11.30;99.90
51825;DHT22;37879;52.986;6.282;2023-04-06T10:17:59;11.40;99.90
51825;DHT22;37879;52.986;6.282;2023-04-06T10:20:35;11.40;99.90
51825;DHT22;37879;52.986;6.282;2023-04-06T10:23:13;11.50;99.90
51825;DHT22;37879;52.986;6.282;2023-04-06T10:25:52;11.60;99.90
51825;DHT22;37879;52.986;6.282;2023-04-06T10:28:19;11.80;99.90
51825;DHT22;37879;52.986;6.282;2023-04-06T10:30:45;11.80;99.90
51825;DHT22;37879;52.986;6.282;2023-04-06T10:33:20;11.80;99.90
51825;DHT22;37879;52.986;6.282;2023-04-06T10:35:46;11.90;99.90
51825;DHT22;37879;52.986;6.282;2023-04-06T10:38:12;12.00;99.90
51825;DHT22;37879;52.986;6.282;2023-04-06T10:40:45;12.00;99.90
51825;DHT22;37879;52.986;6.282;2023-04-06T10:43:19;12.00;99.90
51825;DHT22;37879;52.986;6.282;2023-04-06T10:45:45;11.90;99.90
51825;DHT22;37879;52.986;6.282;2023-04-06T10:48:19;12.40;99.90
51825;DHT22;37879;52.986;6.282;2023-04-06T10:50:48;11.90;99.90
51825;DHT22;37879;52.986;6.282;2023-04-06T10:53:25;11.90;99.90
51825;DHT22;37879;52.986;6.282;2023-04-06T10:55:53;11.90;99.90
51825;DHT22;37879;52.986;6.282;2023-04-06T10:58:19;12.00;99.90
51825;DHT22;37879;52.986;6.282;2023-04-06T11:00:49;12.00;99.90
51825;DHT22;37879;52.986;6.282;2023-04-06T11:03:15;12.60;99.90
51825;DHT22;37879;52.986;6.282;2023-04-06T11:05:45;12.20;99.90
51825;DHT22;37879;52.986;6.282;2023-04-06T11:08:25;12.30;99.90
51825;DHT22;37879;52.986;6.282;2023-04-06T11:10:51;12.30;99.90
51825;DHT22;37879;52.986;6.282;2023-04-06T11:13:17;12.30;99.90
51825;DHT22;37879;52.986;6.282;2023-04-06T11:15:43;12.20;99.90
51825;DHT22;37879;52.986;6.282;2023-04-06T11:18:08;12.20;99.90
51825;DHT22;37879;52.986;6.282;2023-04-06T11:20:34;12.10;99.90
51825;DHT22;37879;52.986;6.282;2023-04-06T11:23:00;12.50;99.90
51825;DHT22;37879;52.986;6.282;2023-04-06T11:25:25;12.10;99.90
51825;DHT22;37879;52.986;6.282;2023-04-06T11:27:57;12.10;99.90
51825;DHT22;37879;52.986;6.282;2023-04-06T11:30:22;12.20;99.90
51825;DHT22;37879;52.986;6.282;2023-04-06T11:32:48;12.80;99.90
51825;DHT22;37879;52.986;6.282;2023-04-06T11:35:23;12.30;99.90
51825;DHT22;37879;52.986;6.282;2023-04-06T11:37:50;12.30;99.90
51825;DHT22;37879;52.986;6.282;2023-04-06T11:40:20;12.40;99.90
51825;DHT22;37879;52.986;6.282;2023-04-06T11:42:55;12.50;99.90
51825;DHT22;37879;52.986;6.282;2023-04-06T11:45:22;12.60;99.90
51825;DHT22;37879;52.986;6.282;2023-04-06T11:47:59;12.70;99.90
51825;DHT22;37879;52.986;6.282;2023-04-06T11:50:25;12.80;99.90
51825;DHT22;37879;52.986;6.282;2023-04-06T11:53:01;12.20;99.90
51825;DHT22;37879;52.986;6.282;2023-04-06T11:55:28;13.00;99.90
51825;DHT22;37879;52.986;6.282;2023-04-06T11:57:54;13.30;99.90
51825;DHT22;37879;52.986;6.282;2023-04-06T12:00:20;13.10;99.90
51825;DHT22;37879;52.986;6.282;2023-04-06T12:02:47;13.00;99.90
51825;DHT22;37879;52.986;6.282;2023-04-06T12:05:13;13.00;99.90
51825;DHT22;37879;52.986;6.282;2023-04-06T12:07:39;13.00;99.90
51825;DHT22;37879;52.986;6.282;2023-04-06T12:10:05;13.00;99.90
51825;DHT22;37879;52.986;6.282;2023-04-06T12:12:31;13.10;99.90
51825;DHT22;37879;52.986;6.282;2023-04-06T12:14:57;13.10;99.90
51825;DHT22;37879;52.986;6.282;2023-04-06T12:17:23;13.10;99.90
51825;DHT22;37879;52.986;6.282;2023-04-06T12:19:48;13.10;99.90
51825;DHT22;37879;52.986;6.282;2023-04-06T12:22:14;13.10;99.90
51825;DHT22;37879;52.986;6.282;2023-04-06T12:24:40;13.10;99.90
51825;DHT22;37879;52.986;6.282;2023-04-06T12:27:06;13.20;99.90
51825;DHT22;37879;52.986;6.282;2023-04-06T12:29:32;13.20;99.90
51825;DHT22;37879;52.986;6.282;2023-04-06T12:31:58;13.40;99.90
51825;DHT22;37879;52.986;6.282;2023-04-06T12:34:25;13.40;99.90
51825;DHT22;37879;52.986;6.282;2023-04-06T12:36:51;13.50;99.90
51825;DHT22;37879;52.986;6.282;2023-04-06T12:39:18;13.50;99.90
51825;DHT22;37879;52.986;6.282;2023-04-06T12:41:44;13.50;99.90
51825;DHT22;37879;52.986;6.282;2023-04-06T12:44:09;13.70;99.90
51825;DHT22;37879;52.986;6.282;2023-04-06T12:46:36;13.70;99.90
51825;DHT22;37879;52.986;6.282;2023-04-06T12:49:02;13.80;99.90
51825;DHT22;37879;52.986;6.282;2023-04-06T12:51:28;14.00;99.90
51825;DHT22;37879;52.986;6.282;2023-04-06T12:53:54;13.70;99.40
51825;DHT22;37879;52.986;6.282;2023-04-06T12:56:20;13.60;99.30
51825;DHT22;37879;52.986;6.282;2023-04-06T12:58:48;13.40;99.60
51825;DHT22;37879;52.986;6.282;2023-04-06T13:01:13;13.30;99.50
51825;DHT22;37879;52.986;6.282;2023-04-06T13:03:42;13.10;99.90
51825;DHT22;37879;52.986;6.282;2023-04-06T13:06:08;13.20;99.90
51825;DHT22;37879;52.986;6.282;2023-04-06T13:08:34;12.90;99.90
51825;DHT22;37879;52.986;6.282;2023-04-06T13:11:02;12.80;99.90
51825;DHT22;37879;52.986;6.282;2023-04-06T13:13:29;12.70;99.90
51825;DHT22;37879;52.986;6.282;2023-04-06T13:16:00;12.50;99.90
51825;DHT22;37879;52.986;6.282;2023-04-06T13:18:26;12.50;99.90
51825;DHT22;37879;52.986;6.282;2023-04-06T13:20:52;12.50;99.90
51825;DHT22;37879;52.986;6.282;2023-04-06T13:23:18;12.50;99.90
51825;DHT22;37879;52.986;6.282;2023-04-06T13:25:43;12.50;99.90
51825;DHT22;37879;52.986;6.282;2023-04-06T13:28:09;12.80;99.90
51825;DHT22;37879;52.986;6.282;2023-04-06T13:30:35;12.50;99.90
51825;DHT22;37879;52.986;6.282;2023-04-06T13:33:02;12.50;99.90
51825;DHT22;37879;52.986;6.282;2023-04-06T13:35:28;12.50;99.90
51825;DHT22;37879;52.986;6.282;2023-04-06T13:37:53;12.40;99.90
51825;DHT22;37879;52.986;6.282;2023-04-06T13:40:20;12.40;99.90
51825;DHT22;37879;52.986;6.282;2023-04-06T13:42:46;12.40;99.90
51825;DHT22;37879;52.986;6.282;2023-04-06T13:45:12;12.50;99.90
51825;DHT22;37879;52.986;6.282;2023-04-06T13:47:38;12.60;99.90
51825;DHT22;37879;52.986;6.282;2023-04-06T13:50:04;12.60;99.90
51825;DHT22;37879;52.986;6.282;2023-04-06T13:52:30;12.60;99.90
51825;DHT22;37879;52.986;6.282;2023-04-06T13:54:55;12.50;99.90
51825;DHT22;37879;52.986;6.282;2023-04-06T13:57:21;12.40;99.90
51825;DHT22;37879;52.986;6.282;2023-04-06T13:59:47;12.30;99.90
51825;DHT22;37879;52.986;6.282;2023-04-06T14:02:15;12.20;99.90
51825;DHT22;37879;52.986;6.282;2023-04-06T14:04:40;12.20;99.90
51825;DHT22;37879;52.986;6.282;2023-04-06T14:07:06;12.10;99.90
51825;DHT22;37879;52.986;6.282;2023-04-06T14:09:33;12.00;99.90
51825;DHT22;37879;52.986;6.282;2023-04-06T14:11:59;11.90;99.90
51825;DHT22;37879;52.986;6.282;2023-04-06T14:14:24;11.90;99.90
51825;DHT22;37879;52.986;6.282;2023-04-06T14:16:51;11.80;99.90
51825;DHT22;37879;52.986;6.282;2023-04-06T14:19:17;11.60;99.90
51825;DHT22;37879;52.986;6.282;2023-04-06T14:21:49;11.30;99.90
51825;DHT22;37879;52.986;6.282;2023-04-06T14:24:17;11.10;99.90
51825;DHT22;37879;52.986;6.282;2023-04-06T14:26:43;10.90;99.90
51825;DHT22;37879;52.986;6.282;2023-04-06T14:29:09;10.70;99.90
51825;DHT22;37879;52.986;6.282;2023-04-06T14:31:35;10.50;99.90
51825;DHT22;37879;52.986;6.282;2023-04-06T14:34:02;10.50;99.90
51825;DHT22;37879;52.986;6.282;2023-04-06T14:36:31;10.50;99.90
51825;DHT22;37879;52.986;6.282;2023-04-06T14:39:02;10.40;99.90
51825;DHT22;37879;52.986;6.282;2023-04-06T14:41:30;10.40;99.90
51825;DHT22;37879;52.986;6.282;2023-04-06T14:43:56;10.50;99.90
51825;DHT22;37879;52.986;6.282;2023-04-06T14:46:22;10.40;99.90
51825;DHT22;37879;52.986;6.282;2023-04-06T14:48:48;10.10;99.90
51825;DHT22;37879;52.986;6.282;2023-04-06T14:51:14;10.20;99.90
51825;DHT22;37879;52.986;6.282;2023-04-06T14:53:39;10.20;99.90
51825;DHT22;37879;52.986;6.282;2023-04-06T14:56:05;10.10;99.90
51825;DHT22;37879;52.986;6.282;2023-04-06T14:58:31;10.10;99.90
51825;DHT22;37879;52.986;6.282;2023-04-06T15:01:01;10.10;99.90
51825;DHT22;37879;52.986;6.282;2023-04-06T15:03:28;10.10;99.90
51825;DHT22;37879;52.986;6.282;2023-04-06T15:05:55;10.10;99.90
51825;DHT22;37879;52.986;6.282;2023-04-06T15:08:24;10.10;99.90
51825;DHT22;37879;52.986;6.282;2023-04-06T15:10:50;10.00;99.90
51825;DHT22;37879;52.986;6.282;2023-04-06T15:13:17;10.00;99.90
51825;DHT22;37879;52.986;6.282;2023-04-06T15:15:43;10.00;99.90
51825;DHT22;37879;52.986;6.282;2023-04-06T15:18:10;10.00;99.90
51825;DHT22;37879;52.986;6.282;2023-04-06T15:20:36;9.90;99.90
51825;DHT22;37879;52.986;6.282;2023-04-06T15:23:03;9.80;99.90
51825;DHT22;37879;52.986;6.282;2023-04-06T15:25:29;9.70;99.90
51825;DHT22;37879;52.986;6.282;2023-04-06T15:27:55;9.70;99.90
51825;DHT22;37879;52.986;6.282;2023-04-06T15:30:21;10.20;99.90
51825;DHT22;37879;52.986;6.282;2023-04-06T15:32:57;9.60;99.90
51825;DHT22;37879;52.986;6.282;2023-04-06T15:35:24;9.60;99.90
51825;DHT22;37879;52.986;6.282;2023-04-06T15:37:51;9.50;99.90
51825;DHT22;37879;52.986;6.282;2023-04-06T15:40:17;9.40;99.90